sensor_id;sensor_type;location;lat;lon;timestamp;P1;durP1;ratioP1;P2;durP2;ratioP2
51146;SDS011;37207;53.060;18.726;2023-07-20T00:00:37;10.80;;;9.80;;
51146;SDS011;37207;53.060;18.726;2023-07-20T00:03:23;9.40;;;8.50;;
51146;SDS011;37207;53.060;18.726;2023-07-20T00:05:51;11.20;;;7.70;;
51146;SDS011;37207;53.060;18.726;2023-07-20T00:08:18;10.10;;;7.40;;
51146;SDS011;37207;53.060;18.726;2023-07-20T00:10:44;11.50;;;6.30;;
51146;SDS011;37207;53.060;18.726;2023-07-20T00:13:11;7.90;;;7.10;;
51146;SDS011;37207;53.060;18.726;2023-07-20T00:15:38;10.70;;;8.20;;
51146;SDS011;37207;53.060;18.726;2023-07-20T00:18:05;7.80;;;7.10;;
51146;SDS011;37207;53.060;18.726;2023-07-20T00:20:31;9.00;;;8.00;;
51146;SDS011;37207;53.060;18.726;2023-07-20T00:22:58;12.80;;;7.90;;
51146;SDS011;37207;53.060;18.726;2023-07-20T00:25:25;7.90;;;6.80;;
51146;SDS011;37207;53.060;18.726;2023-07-20T00:27:51;7.30;;;6.30;;
51146;SDS011;37207;53.060;18.726;2023-07-20T00:30:20;7.50;;;6.80;;
51146;SDS011;37207;53.060;18.726;2023-07-20T00:32:47;7.30;;;6.80;;
51146;SDS011;37207;53.060;18.726;2023-07-20T00:35:13;7.80;;;7.20;;
51146;SDS011;37207;53.060;18.726;2023-07-20T00:37:40;7.70;;;7.20;;
51146;SDS011;37207;53.060;18.726;2023-07-20T00:40:07;7.90;;;7.40;;
51146;SDS011;37207;53.060;18.726;2023-07-20T00:42:34;7.40;;;6.10;;
51146;SDS011;37207;53.060;18.726;2023-07-20T00:45:02;6.50;;;5.50;;
51146;SDS011;37207;53.060;18.726;2023-07-20T00:47:29;6.10;;;5.80;;
51146;SDS011;37207;53.060;18.726;2023-07-20T00:49:56;10.30;;;6.70;;
51146;SDS011;37207;53.060;18.726;2023-07-20T00:52:23;11.30;;;6.80;;
51146;SDS011;37207;53.060;18.726;2023-07-20T00:54:51;8.20;;;6.90;;
51146;SDS011;37207;53.060;18.726;2023-07-20T00:57:19;6.80;;;6.30;;
51146;SDS011;37207;53.060;18.726;2023-07-20T00:59:45;7.90;;;6.30;;
51146;SDS011;37207;53.060;18.726;2023-07-20T01:02:12;8.70;;;8.10;;
51146;SDS011;37207;53.060;18.726;2023-07-20T01:04:40;9.10;;;8.30;;
51146;SDS011;37207;53.060;18.726;2023-07-20T01:07:11;16.00;;;8.20;;
51146;SDS011;37207;53.060;18.726;2023-07-20T01:10:04;10.80;;;8.10;;
51146;SDS011;37207;53.060;18.726;2023-07-20T01:12:40;9.50;;;8.60;;
51146;SDS011;37207;53.060;18.726;2023-07-20T01:15:09;9.90;;;8.80;;
51146;SDS011;37207;53.060;18.726;2023-07-20T01:17:36;9.30;;;8.60;;
51146;SDS011;37207;53.060;18.726;2023-07-20T01:20:03;9.00;;;8.30;;
51146;SDS011;37207;53.060;18.726;2023-07-20T01:22:47;9.10;;;8.40;;
51146;SDS011;37207;53.060;18.726;2023-07-20T01:31:20;9.10;;;8.40;;
51146;SDS011;37207;53.060;18.726;2023-07-20T01:33:53;9.50;;;8.10;;
51146;SDS011;37207;53.060;18.726;2023-07-20T01:36:22;9.50;;;8.80;;
51146;SDS011;37207;53.060;18.726;2023-07-20T01:38:52;8.90;;;8.20;;
51146;SDS011;37207;53.060;18.726;2023-07-20T01:41:20;10.20;;;9.20;;
51146;SDS011;37207;53.060;18.726;2023-07-20T01:43:48;11.20;;;9.40;;
51146;SDS011;37207;53.060;18.726;2023-07-20T01:46:16;9.60;;;8.90;;
51146;SDS011;37207;53.060;18.726;2023-07-20T01:48:42;10.00;;;9.30;;
51146;SDS011;37207;53.060;18.726;2023-07-20T01:51:09;9.90;;;9.10;;
51146;SDS011;37207;53.060;18.726;2023-07-20T01:53:36;8.80;;;8.00;;
51146;SDS011;37207;53.060;18.726;2023-07-20T01:56:03;13.50;;;8.60;;
51146;SDS011;37207;53.060;18.726;2023-07-20T01:58:29;8.60;;;7.90;;
51146;SDS011;37207;53.060;18.726;2023-07-20T02:00:56;9.80;;;8.90;;
51146;SDS011;37207;53.060;18.726;2023-07-20T02:03:22;9.30;;;8.60;;
51146;SDS011;37207;53.060;18.726;2023-07-20T02:05:52;10.00;;;9.00;;
51146;SDS011;37207;53.060;18.726;2023-07-20T02:08:18;15.40;;;8.20;;
51146;SDS011;37207;53.060;18.726;2023-07-20T02:10:46;9.10;;;8.40;;
51146;SDS011;37207;53.060;18.726;2023-07-20T02:13:14;9.90;;;8.90;;
51146;SDS011;37207;53.060;18.726;2023-07-20T02:15:41;9.90;;;8.90;;
51146;SDS011;37207;53.060;18.726;2023-07-20T02:18:09;10.60;;;8.90;;
51146;SDS011;37207;53.060;18.726;2023-07-20T02:20:35;10.30;;;9.00;;
51146;SDS011;37207;53.060;18.726;2023-07-20T02:23:03;10.40;;;9.60;;
51146;SDS011;37207;53.060;18.726;2023-07-20T02:25:30;10.30;;;9.50;;
51146;SDS011;37207;53.060;18.726;2023-07-20T02:27:57;9.60;;;8.80;;
51146;SDS011;37207;53.060;18.726;2023-07-20T02:30:27;10.00;;;9.30;;
51146;SDS011;37207;53.060;18.726;2023-07-20T02:32:56;9.80;;;9.10;;
51146;SDS011;37207;53.060;18.726;2023-07-20T02:37:51;10.10;;;9.20;;
51146;SDS011;37207;53.060;18.726;2023-07-20T02:40:20;8.80;;;8.20;;
51146;SDS011;37207;53.060;18.726;2023-07-20T02:42:47;10.20;;;9.40;;
51146;SDS011;37207;53.060;18.726;2023-07-20T02:45:14;9.50;;;8.90;;
51146;SDS011;37207;53.060;18.726;2023-07-20T02:47:42;12.70;;;10.10;;
51146;SDS011;37207;53.060;18.726;2023-07-20T02:50:12;9.70;;;9.10;;
51146;SDS011;37207;53.060;18.726;2023-07-20T02:52:46;16.10;;;9.60;;
51146;SDS011;37207;53.060;18.726;2023-07-20T02:55:15;10.40;;;9.50;;
51146;SDS011;37207;53.060;18.726;2023-07-20T02:57:42;18.80;;;9.30;;
51146;SDS011;37207;53.060;18.726;2023-07-20T03:00:12;11.60;;;10.00;;
51146;SDS011;37207;53.060;18.726;2023-07-20T03:02:42;13.30;;;12.20;;
51146;SDS011;37207;53.060;18.726;2023-07-20T03:05:29;11.90;;;10.90;;
51146;SDS011;37207;53.060;18.726;2023-07-20T03:07:57;13.60;;;12.20;;
51146;SDS011;37207;53.060;18.726;2023-07-20T03:10:43;13.00;;;11.90;;
51146;SDS011;37207;53.060;18.726;2023-07-20T03:13:10;14.10;;;12.70;;
51146;SDS011;37207;53.060;18.726;2023-07-20T03:15:52;21.40;;;12.30;;
51146;SDS011;37207;53.060;18.726;2023-07-20T03:18:19;14.90;;;13.20;;
51146;SDS011;37207;53.060;18.726;2023-07-20T03:20:46;16.60;;;12.30;;
51146;SDS011;37207;53.060;18.726;2023-07-20T03:23:14;26.00;;;13.70;;
51146;SDS011;37207;53.060;18.726;2023-07-20T03:25:42;27.40;;;14.90;;
51146;SDS011;37207;53.060;18.726;2023-07-20T03:28:09;18.50;;;13.30;;
51146;SDS011;37207;53.060;18.726;2023-07-20T03:30:35;15.90;;;12.70;;
51146;SDS011;37207;53.060;18.726;2023-07-20T03:33:03;14.30;;;13.00;;
51146;SDS011;37207;53.060;18.726;2023-07-20T03:35:30;15.70;;;12.60;;
51146;SDS011;37207;53.060;18.726;2023-07-20T03:37:57;13.60;;;12.20;;
51146;SDS011;37207;53.060;18.726;2023-07-20T03:40:23;13.00;;;11.60;;
51146;SDS011;37207;53.060;18.726;2023-07-20T03:42:52;18.10;;;11.70;;
51146;SDS011;37207;53.060;18.726;2023-07-20T03:45:18;12.50;;;11.20;;
51146;SDS011;37207;53.060;18.726;2023-07-20T03:47:45;11.90;;;10.80;;
51146;SDS011;37207;53.060;18.726;2023-07-20T03:50:14;11.70;;;10.50;;
51146;SDS011;37207;53.060;18.726;2023-07-20T03:52:40;13.60;;;9.90;;
51146;SDS011;37207;53.060;18.726;2023-07-20T03:55:07;10.20;;;9.40;;
51146;SDS011;37207;53.060;18.726;2023-07-20T03:57:34;10.40;;;9.40;;
51146;SDS011;37207;53.060;18.726;2023-07-20T04:00:00;8.80;;;8.20;;
51146;SDS011;37207;53.060;18.726;2023-07-20T04:02:27;8.70;;;7.90;;
51146;SDS011;37207;53.060;18.726;2023-07-20T04:04:53;8.60;;;7.80;;
51146;SDS011;37207;53.060;18.726;2023-07-20T04:07:20;13.20;;;8.00;;
51146;SDS011;37207;53.060;18.726;2023-07-20T04:09:46;10.60;;;8.60;;
51146;SDS011;37207;53.060;18.726;2023-07-20T04:12:13;9.00;;;8.30;;
51146;SDS011;37207;53.060;18.726;2023-07-20T04:14:39;10.60;;;8.20;;
51146;SDS011;37207;53.060;18.726;2023-07-20T04:17:06;8.20;;;7.50;;
51146;SDS011;37207;53.060;18.726;2023-07-20T04:19:32;8.90;;;7.50;;
51146;SDS011;37207;53.060;18.726;2023-07-20T04:21:59;7.70;;;6.90;;
51146;SDS011;37207;53.060;18.726;2023-07-20T04:24:33;7.80;;;6.70;;
51146;SDS011;37207;53.060;18.726;2023-07-20T04:27:08;7.30;;;6.80;;
51146;SDS011;37207;53.060;18.726;2023-07-20T04:29:41;9.60;;;6.90;;
51146;SDS011;37207;53.060;18.726;2023-07-20T04:32:29;7.30;;;6.70;;
51146;SDS011;37207;53.060;18.726;2023-07-20T04:35:05;10.10;;;6.50;;
51146;SDS011;37207;53.060;18.726;2023-07-20T04:37:36;6.70;;;6.20;;
51146;SDS011;37207;53.060;18.726;2023-07-20T04:40:04;10.00;;;5.60;;
51146;SDS011;37207;53.060;18.726;2023-07-20T04:43:02;9.40;;;5.40;;
51146;SDS011;37207;53.060;18.726;2023-07-20T04:45:52;5.80;;;5.30;;
51146;SDS011;37207;53.060;18.726;2023-07-20T04:48:27;21.00;;;6.00;;
51146;SDS011;37207;53.060;18.726;2023-07-20T04:50:55;6.30;;;5.20;;
51146;SDS011;37207;53.060;18.726;2023-07-20T04:53:25;5.20;;;4.80;;
51146;SDS011;37207;53.060;18.726;2023-07-20T04:55:54;5.50;;;5.10;;
51146;SDS011;37207;53.060;18.726;2023-07-20T04:58:42;5.00;;;4.60;;
51146;SDS011;37207;53.060;18.726;2023-07-20T05:01:15;4.60;;;4.20;;
51146;SDS011;37207;53.060;18.726;2023-07-20T05:04:05;8.60;;;4.40;;
51146;SDS011;37207;53.060;18.726;2023-07-20T05:06:54;5.10;;;4.40;;
51146;SDS011;37207;53.060;18.726;2023-07-20T05:09:21;4.70;;;4.10;;
51146;SDS011;37207;53.060;18.726;2023-07-20T05:11:48;4.70;;;4.30;;
51146;SDS011;37207;53.060;18.726;2023-07-20T05:14:15;8.40;;;5.00;;
51146;SDS011;37207;53.060;18.726;2023-07-20T05:16:42;4.70;;;4.30;;
51146;SDS011;37207;53.060;18.726;2023-07-20T05:19:08;5.00;;;4.50;;
51146;SDS011;37207;53.060;18.726;2023-07-20T05:21:35;5.60;;;4.30;;
51146;SDS011;37207;53.060;18.726;2023-07-20T05:24:02;4.40;;;4.10;;
51146;SDS011;37207;53.060;18.726;2023-07-20T05:26:29;4.40;;;4.00;;
51146;SDS011;37207;53.060;18.726;2023-07-20T05:28:56;5.40;;;4.50;;
51146;SDS011;37207;53.060;18.726;2023-07-20T05:31:23;7.20;;;4.40;;
51146;SDS011;37207;53.060;18.726;2023-07-20T05:33:49;4.30;;;3.90;;
51146;SDS011;37207;53.060;18.726;2023-07-20T05:36:16;4.60;;;3.80;;
51146;SDS011;37207;53.060;18.726;2023-07-20T05:38:42;5.20;;;3.70;;
51146;SDS011;37207;53.060;18.726;2023-07-20T05:41:09;7.00;;;3.90;;
51146;SDS011;37207;53.060;18.726;2023-07-20T05:43:37;9.00;;;4.00;;
51146;SDS011;37207;53.060;18.726;2023-07-20T05:46:05;12.40;;;4.90;;
51146;SDS011;37207;53.060;18.726;2023-07-20T05:48:32;4.70;;;3.80;;
51146;SDS011;37207;53.060;18.726;2023-07-20T05:50:59;4.10;;;3.70;;
51146;SDS011;37207;53.060;18.726;2023-07-20T05:53:26;4.20;;;3.40;;
51146;SDS011;37207;53.060;18.726;2023-07-20T05:55:54;4.80;;;4.10;;
51146;SDS011;37207;53.060;18.726;2023-07-20T05:58:22;4.30;;;3.90;;
51146;SDS011;37207;53.060;18.726;2023-07-20T06:00:49;5.60;;;5.20;;
51146;SDS011;37207;53.060;18.726;2023-07-20T06:03:17;5.80;;;5.40;;
51146;SDS011;37207;53.060;18.726;2023-07-20T06:05:52;7.30;;;5.50;;
51146;SDS011;37207;53.060;18.726;2023-07-20T06:08:26;6.10;;;5.50;;
51146;SDS011;37207;53.060;18.726;2023-07-20T06:10:54;6.30;;;5.60;;
51146;SDS011;37207;53.060;18.726;2023-07-20T06:13:24;13.40;;;5.70;;
51146;SDS011;37207;53.060;18.726;2023-07-20T06:15:52;7.10;;;6.30;;
51146;SDS011;37207;53.060;18.726;2023-07-20T06:18:38;6.00;;;5.50;;
51146;SDS011;37207;53.060;18.726;2023-07-20T06:21:05;7.80;;;6.20;;
51146;SDS011;37207;53.060;18.726;2023-07-20T06:23:33;6.80;;;5.80;;
51146;SDS011;37207;53.060;18.726;2023-07-20T06:26:00;5.90;;;5.40;;
51146;SDS011;37207;53.060;18.726;2023-07-20T06:28:27;6.00;;;5.40;;
51146;SDS011;37207;53.060;18.726;2023-07-20T06:30:58;5.40;;;4.90;;
51146;SDS011;37207;53.060;18.726;2023-07-20T06:33:26;5.50;;;4.70;;
51146;SDS011;37207;53.060;18.726;2023-07-20T06:35:53;7.90;;;5.70;;
51146;SDS011;37207;53.060;18.726;2023-07-20T06:38:20;5.40;;;5.00;;
51146;SDS011;37207;53.060;18.726;2023-07-20T06:40:46;6.00;;;5.50;;
51146;SDS011;37207;53.060;18.726;2023-07-20T06:43:13;4.60;;;4.20;;
51146;SDS011;37207;53.060;18.726;2023-07-20T06:45:40;4.70;;;4.30;;
51146;SDS011;37207;53.060;18.726;2023-07-20T06:48:08;5.10;;;4.70;;
51146;SDS011;37207;53.060;18.726;2023-07-20T06:50:34;5.20;;;3.70;;
51146;SDS011;37207;53.060;18.726;2023-07-20T06:53:01;4.50;;;3.60;;
51146;SDS011;37207;53.060;18.726;2023-07-20T06:55:30;4.50;;;3.20;;
51146;SDS011;37207;53.060;18.726;2023-07-20T06:57:57;3.70;;;3.40;;
51146;SDS011;37207;53.060;18.726;2023-07-20T07:00:24;5.20;;;3.70;;
51146;SDS011;37207;53.060;18.726;2023-07-20T07:02:50;4.90;;;3.70;;
51146;SDS011;37207;53.060;18.726;2023-07-20T07:05:17;4.20;;;3.70;;
51146;SDS011;37207;53.060;18.726;2023-07-20T07:07:44;4.60;;;4.00;;
51146;SDS011;37207;53.060;18.726;2023-07-20T07:10:11;5.80;;;3.60;;
51146;SDS011;37207;53.060;18.726;2023-07-20T07:12:37;3.70;;;3.00;;
51146;SDS011;37207;53.060;18.726;2023-07-20T07:15:04;3.10;;;2.80;;
51146;SDS011;37207;53.060;18.726;2023-07-20T07:17:34;4.00;;;2.30;;
51146;SDS011;37207;53.060;18.726;2023-07-20T07:20:01;2.70;;;2.40;;
51146;SDS011;37207;53.060;18.726;2023-07-20T07:22:29;3.70;;;3.10;;
51146;SDS011;37207;53.060;18.726;2023-07-20T07:24:56;3.10;;;2.80;;
51146;SDS011;37207;53.060;18.726;2023-07-20T07:27:23;3.90;;;3.10;;
51146;SDS011;37207;53.060;18.726;2023-07-20T07:29:50;4.60;;;2.40;;
51146;SDS011;37207;53.060;18.726;2023-07-20T07:32:16;3.90;;;2.30;;
51146;SDS011;37207;53.060;18.726;2023-07-20T07:34:43;3.40;;;2.40;;
51146;SDS011;37207;53.060;18.726;2023-07-20T07:37:13;3.30;;;2.90;;
51146;SDS011;37207;53.060;18.726;2023-07-20T07:39:39;4.60;;;3.10;;
51146;SDS011;37207;53.060;18.726;2023-07-20T07:42:06;2.80;;;2.50;;
51146;SDS011;37207;53.060;18.726;2023-07-20T07:44:33;4.20;;;2.00;;
51146;SDS011;37207;53.060;18.726;2023-07-20T07:46:59;3.60;;;2.40;;
51146;SDS011;37207;53.060;18.726;2023-07-20T07:49:26;8.70;;;2.40;;
51146;SDS011;37207;53.060;18.726;2023-07-20T07:51:54;4.80;;;2.30;;
51146;SDS011;37207;53.060;18.726;2023-07-20T07:54:20;2.30;;;1.90;;
51146;SDS011;37207;53.060;18.726;2023-07-20T07:56:47;1.80;;;1.60;;
51146;SDS011;37207;53.060;18.726;2023-07-20T07:59:13;8.50;;;1.90;;
51146;SDS011;37207;53.060;18.726;2023-07-20T08:01:40;2.90;;;1.50;;
51146;SDS011;37207;53.060;18.726;2023-07-20T08:04:06;2.90;;;1.70;;
51146;SDS011;37207;53.060;18.726;2023-07-20T08:06:33;1.90;;;1.80;;
51146;SDS011;37207;53.060;18.726;2023-07-20T08:08:59;3.20;;;2.20;;
51146;SDS011;37207;53.060;18.726;2023-07-20T08:11:27;3.60;;;2.20;;
51146;SDS011;37207;53.060;18.726;2023-07-20T08:13:53;2.20;;;2.00;;
51146;SDS011;37207;53.060;18.726;2023-07-20T08:16:20;1.80;;;1.70;;
51146;SDS011;37207;53.060;18.726;2023-07-20T08:18:47;2.30;;;2.10;;
51146;SDS011;37207;53.060;18.726;2023-07-20T08:21:13;2.40;;;2.20;;
51146;SDS011;37207;53.060;18.726;2023-07-20T08:23:40;3.30;;;2.40;;
51146;SDS011;37207;53.060;18.726;2023-07-20T08:26:06;6.50;;;2.70;;
51146;SDS011;37207;53.060;18.726;2023-07-20T08:28:33;3.50;;;2.50;;
51146;SDS011;37207;53.060;18.726;2023-07-20T08:31:00;3.20;;;2.60;;
51146;SDS011;37207;53.060;18.726;2023-07-20T08:33:27;3.50;;;2.90;;
51146;SDS011;37207;53.060;18.726;2023-07-20T08:36:00;2.90;;;2.60;;
51146;SDS011;37207;53.060;18.726;2023-07-20T08:40:54;2.80;;;2.50;;
51146;SDS011;37207;53.060;18.726;2023-07-20T08:43:22;7.40;;;2.70;;
51146;SDS011;37207;53.060;18.726;2023-07-20T08:45:54;5.20;;;2.40;;
51146;SDS011;37207;53.060;18.726;2023-07-20T08:48:24;2.80;;;2.60;;
51146;SDS011;37207;53.060;18.726;2023-07-20T08:50:54;5.70;;;2.20;;
51146;SDS011;37207;53.060;18.726;2023-07-20T08:53:22;2.90;;;2.30;;
51146;SDS011;37207;53.060;18.726;2023-07-20T08:55:50;2.80;;;2.50;;
51146;SDS011;37207;53.060;18.726;2023-07-20T08:58:20;7.50;;;2.40;;
51146;SDS011;37207;53.060;18.726;2023-07-20T09:00:47;5.80;;;2.60;;
51146;SDS011;37207;53.060;18.726;2023-07-20T09:03:18;2.60;;;2.40;;
51146;SDS011;37207;53.060;18.726;2023-07-20T09:05:45;1.90;;;1.70;;
51146;SDS011;37207;53.060;18.726;2023-07-20T09:08:12;2.20;;;1.60;;
51146;SDS011;37207;53.060;18.726;2023-07-20T09:10:39;2.90;;;1.90;;
51146;SDS011;37207;53.060;18.726;2023-07-20T09:13:05;3.20;;;1.80;;
51146;SDS011;37207;53.060;18.726;2023-07-20T09:15:32;2.70;;;1.80;;
51146;SDS011;37207;53.060;18.726;2023-07-20T09:18:00;1.50;;;1.30;;
51146;SDS011;37207;53.060;18.726;2023-07-20T09:20:30;2.10;;;1.40;;
51146;SDS011;37207;53.060;18.726;2023-07-20T09:22:58;3.90;;;1.80;;
51146;SDS011;37207;53.060;18.726;2023-07-20T09:25:24;2.60;;;1.90;;
51146;SDS011;37207;53.060;18.726;2023-07-20T09:27:53;1.50;;;1.40;;
51146;SDS011;37207;53.060;18.726;2023-07-20T09:30:21;3.00;;;1.60;;
51146;SDS011;37207;53.060;18.726;2023-07-20T09:32:51;2.30;;;1.60;;
51146;SDS011;37207;53.060;18.726;2023-07-20T09:35:19;1.70;;;1.40;;
51146;SDS011;37207;53.060;18.726;2023-07-20T09:37:49;1.60;;;1.20;;
51146;SDS011;37207;53.060;18.726;2023-07-20T09:40:18;1.90;;;1.00;;
51146;SDS011;37207;53.060;18.726;2023-07-20T09:42:46;2.00;;;1.30;;
51146;SDS011;37207;53.060;18.726;2023-07-20T09:45:13;1.60;;;1.10;;
51146;SDS011;37207;53.060;18.726;2023-07-20T09:47:40;6.80;;;3.10;;
51146;SDS011;37207;53.060;18.726;2023-07-20T09:50:08;2.70;;;1.40;;
51146;SDS011;37207;53.060;18.726;2023-07-20T09:52:38;1.50;;;1.10;;
51146;SDS011;37207;53.060;18.726;2023-07-20T09:55:10;3.40;;;1.40;;
51146;SDS011;37207;53.060;18.726;2023-07-20T09:57:40;3.20;;;1.70;;
51146;SDS011;37207;53.060;18.726;2023-07-20T10:00:07;3.70;;;1.60;;
51146;SDS011;37207;53.060;18.726;2023-07-20T10:02:43;2.40;;;1.30;;
51146;SDS011;37207;53.060;18.726;2023-07-20T10:05:14;1.90;;;1.40;;
51146;SDS011;37207;53.060;18.726;2023-07-20T10:07:46;1.60;;;1.20;;
51146;SDS011;37207;53.060;18.726;2023-07-20T10:10:15;2.70;;;2.20;;
51146;SDS011;37207;53.060;18.726;2023-07-20T10:12:47;6.40;;;2.40;;
51146;SDS011;37207;53.060;18.726;2023-07-20T10:15:18;11.10;;;4.80;;
51146;SDS011;37207;53.060;18.726;2023-07-20T10:18:09;38.40;;;5.00;;
51146;SDS011;37207;53.060;18.726;2023-07-20T10:20:41;7.00;;;2.00;;
51146;SDS011;37207;53.060;18.726;2023-07-20T10:23:08;4.10;;;2.60;;
51146;SDS011;37207;53.060;18.726;2023-07-20T10:25:35;4.60;;;2.30;;
51146;SDS011;37207;53.060;18.726;2023-07-20T10:28:06;24.20;;;4.40;;
51146;SDS011;37207;53.060;18.726;2023-07-20T10:30:36;3.00;;;1.40;;
51146;SDS011;37207;53.060;18.726;2023-07-20T10:33:05;1.50;;;1.10;;
51146;SDS011;37207;53.060;18.726;2023-07-20T10:38:19;1.50;;;1.00;;
51146;SDS011;37207;53.060;18.726;2023-07-20T10:40:53;5.80;;;2.40;;
51146;SDS011;37207;53.060;18.726;2023-07-20T10:43:22;2.90;;;1.20;;
51146;SDS011;37207;53.060;18.726;2023-07-20T10:45:49;1.30;;;0.90;;
51146;SDS011;37207;53.060;18.726;2023-07-20T10:48:21;5.80;;;0.90;;
51146;SDS011;37207;53.060;18.726;2023-07-20T10:53:47;1.50;;;1.00;;
51146;SDS011;37207;53.060;18.726;2023-07-20T10:56:22;3.80;;;1.00;;
51146;SDS011;37207;53.060;18.726;2023-07-20T10:59:00;3.50;;;1.10;;
51146;SDS011;37207;53.060;18.726;2023-07-20T11:01:28;1.90;;;0.90;;
51146;SDS011;37207;53.060;18.726;2023-07-20T11:03:59;1.50;;;0.90;;
51146;SDS011;37207;53.060;18.726;2023-07-20T11:06:30;1.00;;;0.80;;
51146;SDS011;37207;53.060;18.726;2023-07-20T11:09:10;2.40;;;0.90;;
51146;SDS011;37207;53.060;18.726;2023-07-20T11:11:41;1.70;;;0.80;;
51146;SDS011;37207;53.060;18.726;2023-07-20T11:14:10;0.90;;;0.80;;
51146;SDS011;37207;53.060;18.726;2023-07-20T11:16:47;1.80;;;0.90;;
51146;SDS011;37207;53.060;18.726;2023-07-20T11:19:20;2.60;;;0.90;;
51146;SDS011;37207;53.060;18.726;2023-07-20T11:21:50;3.40;;;0.80;;
51146;SDS011;37207;53.060;18.726;2023-07-20T11:24:18;4.10;;;0.70;;
51146;SDS011;37207;53.060;18.726;2023-07-20T11:26:52;3.00;;;1.00;;
51146;SDS011;37207;53.060;18.726;2023-07-20T11:29:21;1.30;;;0.70;;
51146;SDS011;37207;53.060;18.726;2023-07-20T11:31:49;16.40;;;1.00;;
51146;SDS011;37207;53.060;18.726;2023-07-20T11:34:19;1.70;;;0.60;;
51146;SDS011;37207;53.060;18.726;2023-07-20T11:36:48;9.00;;;0.70;;
51146;SDS011;37207;53.060;18.726;2023-07-20T11:39:17;2.10;;;0.70;;
51146;SDS011;37207;53.060;18.726;2023-07-20T11:44:25;2.50;;;0.60;;
51146;SDS011;37207;53.060;18.726;2023-07-20T11:49:55;84.30;;;3.20;;
51146;SDS011;37207;53.060;18.726;2023-07-20T11:52:29;2.50;;;0.60;;
51146;SDS011;37207;53.060;18.726;2023-07-20T11:54:56;27.60;;;1.40;;
51146;SDS011;37207;53.060;18.726;2023-07-20T11:57:24;55.80;;;1.70;;
51146;SDS011;37207;53.060;18.726;2023-07-20T11:59:58;4.40;;;0.60;;
51146;SDS011;37207;53.060;18.726;2023-07-20T12:02:32;0.70;;;0.70;;
51146;SDS011;37207;53.060;18.726;2023-07-20T12:04:59;0.80;;;0.50;;
51146;SDS011;37207;53.060;18.726;2023-07-20T12:07:26;0.60;;;0.60;;
51146;SDS011;37207;53.060;18.726;2023-07-20T12:12:32;4.60;;;0.70;;
51146;SDS011;37207;53.060;18.726;2023-07-20T12:17:50;1.10;;;0.40;;
51146;SDS011;37207;53.060;18.726;2023-07-20T12:20:25;2.10;;;0.30;;
51146;SDS011;37207;53.060;18.726;2023-07-20T12:23:04;1.70;;;0.30;;
51146;SDS011;37207;53.060;18.726;2023-07-20T12:25:38;1.50;;;0.60;;
51146;SDS011;37207;53.060;18.726;2023-07-20T12:28:16;2.00;;;0.40;;
51146;SDS011;37207;53.060;18.726;2023-07-20T12:30:45;17.40;;;1.20;;
51146;SDS011;37207;53.060;18.726;2023-07-20T12:33:13;17.80;;;1.10;;
51146;SDS011;37207;53.060;18.726;2023-07-20T12:35:43;12.50;;;0.70;;
51146;SDS011;37207;53.060;18.726;2023-07-20T12:38:10;5.60;;;0.40;;
51146;SDS011;37207;53.060;18.726;2023-07-20T12:40:37;4.60;;;0.60;;
51146;SDS011;37207;53.060;18.726;2023-07-20T12:43:04;16.30;;;0.70;;
51146;SDS011;37207;53.060;18.726;2023-07-20T12:45:33;13.10;;;0.80;;
51146;SDS011;37207;53.060;18.726;2023-07-20T12:48:00;3.10;;;0.50;;
51146;SDS011;37207;53.060;18.726;2023-07-20T12:50:27;19.90;;;0.80;;
51146;SDS011;37207;53.060;18.726;2023-07-20T12:52:53;6.50;;;0.50;;
51146;SDS011;37207;53.060;18.726;2023-07-20T12:55:20;1.70;;;0.60;;
51146;SDS011;37207;53.060;18.726;2023-07-20T12:57:47;3.10;;;0.50;;
51146;SDS011;37207;53.060;18.726;2023-07-20T13:00:13;5.70;;;0.60;;
51146;SDS011;37207;53.060;18.726;2023-07-20T13:02:40;1.20;;;0.60;;
51146;SDS011;37207;53.060;18.726;2023-07-20T13:05:08;2.00;;;0.60;;
51146;SDS011;37207;53.060;18.726;2023-07-20T13:07:35;6.70;;;0.60;;
51146;SDS011;37207;53.060;18.726;2023-07-20T13:10:04;4.70;;;0.50;;
51146;SDS011;37207;53.060;18.726;2023-07-20T13:12:31;4.80;;;0.50;;
51146;SDS011;37207;53.060;18.726;2023-07-20T13:15:02;3.20;;;0.30;;
51146;SDS011;37207;53.060;18.726;2023-07-20T13:17:32;1.40;;;0.20;;
51146;SDS011;37207;53.060;18.726;2023-07-20T13:19:59;0.30;;;0.30;;
51146;SDS011;37207;53.060;18.726;2023-07-20T13:22:26;1.90;;;0.30;;
51146;SDS011;37207;53.060;18.726;2023-07-20T13:24:52;0.30;;;0.30;;
51146;SDS011;37207;53.060;18.726;2023-07-20T13:27:19;0.40;;;0.40;;
51146;SDS011;37207;53.060;18.726;2023-07-20T13:29:46;0.90;;;0.40;;
51146;SDS011;37207;53.060;18.726;2023-07-20T13:32:13;1.50;;;0.40;;
51146;SDS011;37207;53.060;18.726;2023-07-20T13:34:47;1.70;;;0.40;;
51146;SDS011;37207;53.060;18.726;2023-07-20T13:37:14;3.80;;;0.50;;
51146;SDS011;37207;53.060;18.726;2023-07-20T13:39:42;0.40;;;0.20;;
51146;SDS011;37207;53.060;18.726;2023-07-20T13:42:09;0.40;;;0.20;;
51146;SDS011;37207;53.060;18.726;2023-07-20T13:44:37;2.20;;;0.40;;
51146;SDS011;37207;53.060;18.726;2023-07-20T13:47:04;1.10;;;0.60;;
51146;SDS011;37207;53.060;18.726;2023-07-20T13:49:34;1.80;;;1.40;;
51146;SDS011;37207;53.060;18.726;2023-07-20T13:52:00;1.70;;;1.40;;
51146;SDS011;37207;53.060;18.726;2023-07-20T13:54:27;4.70;;;2.70;;
51146;SDS011;37207;53.060;18.726;2023-07-20T13:56:54;3.60;;;1.70;;
51146;SDS011;37207;53.060;18.726;2023-07-20T13:59:20;2.50;;;0.90;;
51146;SDS011;37207;53.060;18.726;2023-07-20T14:01:47;1.30;;;0.50;;
51146;SDS011;37207;53.060;18.726;2023-07-20T14:04:14;1.20;;;0.40;;
51146;SDS011;37207;53.060;18.726;2023-07-20T14:06:40;1.10;;;0.40;;
51146;SDS011;37207;53.060;18.726;2023-07-20T14:09:07;0.70;;;0.30;;
51146;SDS011;37207;53.060;18.726;2023-07-20T14:11:33;0.70;;;0.40;;
51146;SDS011;37207;53.060;18.726;2023-07-20T14:14:00;0.90;;;0.40;;
51146;SDS011;37207;53.060;18.726;2023-07-20T14:16:27;0.40;;;0.30;;
51146;SDS011;37207;53.060;18.726;2023-07-20T14:18:53;0.50;;;0.40;;
51146;SDS011;37207;53.060;18.726;2023-07-20T14:21:20;31.50;;;1.10;;
51146;SDS011;37207;53.060;18.726;2023-07-20T14:23:48;0.70;;;0.30;;
51146;SDS011;37207;53.060;18.726;2023-07-20T14:28:42;2.10;;;0.40;;
51146;SDS011;37207;53.060;18.726;2023-07-20T14:31:09;1.10;;;0.30;;
51146;SDS011;37207;53.060;18.726;2023-07-20T14:33:36;0.50;;;0.30;;
51146;SDS011;37207;53.060;18.726;2023-07-20T14:36:02;0.70;;;0.20;;
51146;SDS011;37207;53.060;18.726;2023-07-20T14:38:33;3.20;;;0.30;;
51146;SDS011;37207;53.060;18.726;2023-07-20T14:41:01;0.70;;;0.30;;
51146;SDS011;37207;53.060;18.726;2023-07-20T14:43:28;2.30;;;0.40;;
51146;SDS011;37207;53.060;18.726;2023-07-20T14:45:56;0.30;;;0.30;;
51146;SDS011;37207;53.060;18.726;2023-07-20T14:48:22;1.00;;;0.20;;
51146;SDS011;37207;53.060;18.726;2023-07-20T14:50:49;1.60;;;0.40;;
51146;SDS011;37207;53.060;18.726;2023-07-20T14:53:16;0.60;;;0.60;;
51146;SDS011;37207;53.060;18.726;2023-07-20T14:55:43;1.00;;;0.40;;
51146;SDS011;37207;53.060;18.726;2023-07-20T14:58:10;0.60;;;0.40;;
51146;SDS011;37207;53.060;18.726;2023-07-20T15:00:37;0.70;;;0.40;;
51146;SDS011;37207;53.060;18.726;2023-07-20T15:03:04;2.00;;;0.50;;
51146;SDS011;37207;53.060;18.726;2023-07-20T15:05:32;0.90;;;0.40;;
51146;SDS011;37207;53.060;18.726;2023-07-20T15:07:59;0.90;;;0.40;;
51146;SDS011;37207;53.060;18.726;2023-07-20T15:10:26;1.70;;;0.30;;